Time;durP1;ratioP1;P1;durP2;ratioP2;P2;SDS_P1;SDS_P2;PMS_P1;PMS_P2;Temp;Humidity;BMP_temperature;BMP_pressure;BME280_temperature;BME280_humidity;BME280_pressure;Samples;Min_cycle;Max_cycle;Signal;HPM_P1;HPM_P2
2021/11/12 00:02:14;;;;;;;;;;;;;;;0.38;92.35;97400.06;30001;983;1864;-61
2021/11/12 00:12:42;;;;;;;;;;;;;;;0.30;92.83;97401.16;30001;983;1881;-61
2021/11/12 00:13:19;;;;;;;;;;;;;;;0.32;92.78;97398.28;30001;983;1868;-60
2021/11/12 00:13:50;;;;;;;;;;;;;;;0.31;92.95;97396.63;30001;983;1877;-60
2021/11/12 00:14:24;;;;;;;;;;;;;;;0.33;92.83;97390.06;30001;983;1881;-60
2021/11/12 00:14:56;;;;;;;;;;;;;;;0.33;92.93;97400.72;30001;982;1886;-61
2021/11/12 00:15:27;;;;;;;;;;;;;;;0.32;92.69;97398.28;30001;975;1876;-61
2021/11/12 00:16:02;;;;;;;;;;;;;;;0.33;92.98;97389.25;30001;982;1877;-61
2021/11/12 00:16:34;;;;;;;;;;;;;;;0.32;92.83;97395.59;30001;982;1881;-61
2021/11/12 00:17:09;;;;;;;;;;;;;;;0.33;92.80;97386.56;30001;982;1886;-60
2021/11/12 00:17:41;;;;;;;;;;;;;;;0.33;92.70;97389.25;30001;983;1881;-61
2021/11/12 00:18:12;;;;;;;;;;;;;;;0.34;92.87;97393.53;30001;983;1885;-61
2021/11/12 00:18:43;;;;;;;;;;;;;;;0.34;92.67;97396.22;30002;326;1464;-60
2021/11/12 00:19:14;;;;;;;;;;;;;;;0.33;92.91;97386.56;30001;983;1885;-61
2021/11/12 00:19:45;;;;;;;;;;;;;;;0.32;92.79;97382.25;30001;983;1868;-59
2021/11/12 00:20:16;;;;;;;;;;;;;;;0.31;92.86;97384.13;30001;983;1877;-61
2021/11/12 00:20:47;;;;;;;;;;;;;;;0.31;92.50;97385.97;30001;983;1881;-56
2021/11/12 00:21:19;;;;;;;;;;;;;;;0.31;92.74;97380.63;30001;983;1886;-61
2021/11/12 00:21:50;;;;;;;;;;;;;;;0.33;92.80;97394.56;30001;982;1881;-61
2021/11/12 00:22:22;;;;;;;;;;;;;;;0.32;92.87;97383.09;30001;982;1886;-61
2021/11/12 00:22:54;;;;;;;;;;;;;;;0.34;92.63;97390.88;30001;982;1882;-59
2021/11/12 00:23:25;;;;;;;;;;;;;;;0.33;92.58;97391.91;30001;982;1886;-60
2021/11/12 00:23:56;;;;;;;;;;;;;;;0.33;92.59;97383.91;30001;982;1882;-61
2021/11/12 00:24:27;;;;;;;;;;;;;;;0.31;92.66;97386.78;30001;982;1886;-62
2021/11/12 00:24:59;;;;;;;;;;;;;;;0.30;92.47;97390.47;30001;983;1868;-63
2021/11/12 00:25:30;;;;;;;;;;;;;;;0.31;92.63;97383.28;30001;983;1876;-60
2021/11/12 00:26:02;;;;;;;;;;;;;;;0.29;92.25;97382.69;30001;983;1881;-61
2021/11/12 00:26:34;;;;;;;;;;;;;;;0.27;92.68;97390.09;30001;983;1885;-61
2021/11/12 00:27:06;;;;;;;;;;;;;;;0.27;92.38;97380.25;30001;983;1881;-61
2021/11/12 00:27:38;;;;;;;;;;;;;;;0.27;92.71;97387.44;30001;983;1885;-60
2021/11/12 00:28:11;;;;;;;;;;;;;;;0.28;92.41;97397.06;30001;983;1881;-60
2021/11/12 00:29:50;;;;;;;;;;;;;;;0.30;92.79;97384.31;30001;982;1881;-62
2021/11/12 00:30:45;;;;;;;;;;;;;;;0.31;92.45;97385.97;30001;982;1872;-60
2021/11/12 00:31:44;;;;;;;;;;;;;;;0.31;92.70;97385.97;30001;982;1873;-61
2021/11/12 00:32:25;;;;;;;;;;;;;;;0.30;92.66;97387.00;30001;982;1886;-60
2021/11/12 00:38:51;;;;;;;;;;;;;;;0.29;92.52;97393.38;30001;982;1882;-62
2021/11/12 00:40:35;;;;;;;;;;;;;;;0.29;92.40;97394.19;30001;983;1881;-60
2021/11/12 00:41:33;;;;;;;;;;;;;;;0.30;92.39;97389.66;30001;983;1872;-62
2021/11/12 00:42:10;;;;;;;;;;;;;;;0.31;92.77;97391.31;30001;983;1872;-60
2021/11/12 00:43:44;;;;;;;;;;;;;;;0.30;92.69;97395.81;30001;983;1881;-60
2021/11/12 00:44:27;;;;;;;;;;;;;;;0.28;92.53;97397.88;30001;982;1886;-62
2021/11/12 00:45:03;;;;;;;;;;;;;;;0.29;92.80;97391.50;30001;982;1881;-61
2021/11/12 00:45:42;;;;;;;;;;;;;;;0.30;92.81;97397.66;30001;982;1886;-62
2021/11/12 00:46:19;;;;;;;;;;;;;;;0.30;92.62;97395.81;30001;982;1868;-62
2021/11/12 00:46:54;;;;;;;;;;;;;;;0.30;92.63;97395.00;30001;982;1877;-61
2021/11/12 00:47:35;;;;;;;;;;;;;;;0.30;92.56;97395.00;30001;982;1882;-62
2021/11/12 00:48:16;;;;;;;;;;;;;;;0.29;92.80;97396.03;30001;983;1885;-61
2021/11/12 00:48:58;;;;;;;;;;;;;;;0.29;92.42;97398.72;30001;983;1881;-60
2021/11/12 00:49:32;;;;;;;;;;;;;;;0.27;92.64;97401.59;30001;983;1885;-60
2021/11/12 00:50:29;;;;;;;;;;;;;;;0.26;92.41;97399.12;30001;983;1881;-61
2021/11/12 00:52:13;;;;;;;;;;;;;;;0.26;92.71;97404.47;30001;982;1868;-60
2021/11/12 00:53:42;;;;;;;;;;;;;;;0.21;92.10;97401.63;30001;982;1882;-60
2021/11/12 00:54:14;;;;;;;;;;;;;;;0.16;91.79;97393.44;30001;982;1886;-61
2021/11/12 00:54:44;;;;;;;;;;;;;;;0.15;91.99;97397.97;30001;983;1881;-61
2021/11/12 00:55:16;;;;;;;;;;;;;;;0.14;92.01;97399.00;30001;983;1885;-61
2021/11/12 00:55:47;;;;;;;;;;;;;;;0.15;91.80;97402.47;30001;983;1881;-61
2021/11/12 00:56:19;;;;;;;;;;;;;;;0.13;92.01;97399.19;30001;983;1885;-60
2021/11/12 00:56:51;;;;;;;;;;;;;;;0.11;92.02;97395.94;30001;983;1881;-61
2021/11/12 00:57:23;;;;;;;;;;;;;;;0.11;91.80;97398.59;30001;983;1872;-60
2021/11/12 00:57:55;;;;;;;;;;;;;;;0.11;91.93;97396.75;30001;983;1872;-61
2021/11/12 00:58:25;;;;;;;;;;;;;;;0.10;92.01;97396.97;30001;987;1885;-61
2021/11/12 00:58:58;;;;;;;;;;;;;;;0.06;91.73;97406.41;30001;983;1881;-61
2021/11/12 00:59:29;;;;;;;;;;;;;;;0.03;92.05;97398.84;30001;982;1886;-61
2021/11/12 01:00:00;;;;;;;;;;;;;;;0.04;91.99;97403.16;30001;982;1881;-62
2021/11/12 01:00:31;;;;;;;;;;;;;;;0.00;92.17;97398.22;30001;982;1886;-61
2021/11/12 01:01:04;;;;;;;;;;;;;;;-0.01;92.17;97398.47;30001;982;1882;-61
2021/11/12 01:01:38;;;;;;;;;;;;;;;-0.03;92.19;97396.03;30001;982;1886;-61
2021/11/12 01:02:08;;;;;;;;;;;;;;;-0.03;92.15;97397.88;30001;983;1881;-61
2021/11/12 01:02:39;;;;;;;;;;;;;;;-0.03;92.35;97395.19;30001;983;1872;-62
2021/11/12 01:03:10;;;;;;;;;;;;;;;-0.03;92.41;97398.69;30001;983;1872;-61
2021/11/12 01:03:41;;;;;;;;;;;;;;;-0.04;92.63;97394.37;30001;983;1885;-62
2021/11/12 01:04:20;;;;;;;;;;;;;;;-0.04;92.65;97393.56;30001;983;1881;-62
2021/11/12 01:04:51;;;;;;;;;;;;;;;-0.06;92.91;97391.09;30001;983;1885;-62
2021/11/12 01:05:22;;;;;;;;;;;;;;;-0.05;92.71;97398.09;30001;983;1868;-62
2021/11/12 01:05:53;;;;;;;;;;;;;;;-0.07;92.81;97394.81;30001;983;1877;-61
2021/11/12 01:06:24;;;;;;;;;;;;;;;-0.08;92.68;97393.16;30001;983;1881;-59
2021/11/12 01:06:55;;;;;;;;;;;;;;;-0.07;92.97;97388.66;30001;982;1886;-59
2021/11/12 01:07:27;;;;;;;;;;;;;;;-0.07;93.01;97389.47;30001;982;1881;-60
2021/11/12 01:07:59;;;;;;;;;;;;;;;-0.07;93.27;97389.47;30001;982;1886;-59
2021/11/12 01:08:30;;;;;;;;;;;;;;;-0.07;93.25;97392.13;30001;982;1868;-60
2021/11/12 01:09:03;;;;;;;;;;;;;;;-0.08;93.27;97390.50;30001;982;1877;-60
2021/11/12 01:09:35;;;;;;;;;;;;;;;-0.09;93.17;97390.72;30001;983;1881;-60
2021/11/12 01:10:09;;;;;;;;;;;;;;;-0.08;93.29;97381.69;30001;983;1885;-60
2021/11/12 01:10:42;;;;;;;;;;;;;;;-0.09;93.30;97380.88;30001;983;1881;-61
2021/11/12 01:11:15;;;;;;;;;;;;;;;-0.07;93.74;97383.31;30001;983;1885;-61
2021/11/12 01:11:50;;;;;;;;;;;;;;;-0.07;93.58;97384.13;30001;983;1868;-61
2021/11/12 01:12:21;;;;;;;;;;;;;;;-0.10;93.38;97384.56;30001;983;1877;-61
2021/11/12 01:12:52;;;;;;;;;;;;;;;-0.11;93.14;97382.91;30001;983;1881;-61
2021/11/12 01:13:24;;;;;;;;;;;;;;;-0.14;93.23;97383.34;30001;983;1886;-62
2021/11/12 01:13:55;;;;;;;;;;;;;;;-0.17;93.20;97378.44;30001;983;1868;-60
2021/11/12 01:14:26;;;;;;;;;;;;;;;-0.18;93.37;97376.78;30001;983;1877;-60
2021/11/12 01:14:57;;;;;;;;;;;;;;;-0.16;93.27;97382.75;30001;982;1881;-61
2021/11/12 01:15:28;;;;;;;;;;;;;;;-0.16;93.49;97380.06;30001;982;1886;-61
2021/11/12 01:15:59;;;;;;;;;;;;;;;-0.13;93.63;97382.31;30001;982;1882;-61
2021/11/12 01:16:31;;;;;;;;;;;;;;;-0.13;93.54;97376.97;30001;982;1886;-60
2021/11/12 01:17:01;;;;;;;;;;;;;;;-0.11;93.70;97377.59;30001;983;1881;-61
2021/11/12 01:17:32;;;;;;;;;;;;;;;-0.10;93.60;97379.22;30001;983;1885;-60
2021/11/12 01:18:03;;;;;;;;;;;;;;;-0.09;93.27;97380.88;30001;983;1881;-61
2021/11/12 01:18:36;;;;;;;;;;;;;;;-0.09;93.42;97378.19;30001;983;1885;-60
2021/11/12 01:19:10;;;;;;;;;;;;;;;-0.09;93.10;97377.38;30001;983;1868;-62
2021/11/12 01:19:41;;;;;;;;;;;;;;;-0.09;93.36;97370.19;30001;983;1877;-61
2021/11/12 01:20:14;;;;;;;;;;;;;;;-0.08;93.07;97374.50;30001;983;1881;-60
2021/11/12 01:20:45;;;;;;;;;;;;;;;-0.08;93.20;97374.50;30001;983;1886;-60
2021/11/12 01:21:16;;;;;;;;;;;;;;;-0.07;93.17;97372.66;30001;983;1881;-61
2021/11/12 01:21:47;;;;;;;;;;;;;;;-0.08;93.43;97374.50;30001;983;1886;-60
2021/11/12 01:22:19;;;;;;;;;;;;;;;-0.07;93.06;97373.47;30001;982;1881;-61
2021/11/12 01:22:50;;;;;;;;;;;;;;;-0.08;93.06;97365.69;30001;982;1886;-61
2021/11/12 01:23:21;;;;;;;;;;;;;;;-0.09;93.07;97372.84;30001;982;1882;-62
2021/11/12 01:23:53;;;;;;;;;;;;;;;-0.09;93.01;97369.38;30001;982;1873;-61
2021/11/12 01:24:24;;;;;;;;;;;;;;;-0.11;93.05;97372.25;30001;982;1873;-60
2021/11/12 01:24:55;;;;;;;;;;;;;;;-0.11;93.28;97369.59;30001;983;1885;-62
2021/11/12 01:25:26;;;;;;;;;;;;;;;-0.13;93.17;97368.97;30001;983;1881;-61
2021/11/12 01:25:57;;;;;;;;;;;;;;;-0.14;93.30;97367.34;30001;983;1885;-61
2021/11/12 01:26:28;;;;;;;;;;;;;;;-0.15;93.10;97370.22;30001;983;1881;-61
2021/11/12 01:26:59;;;;;;;;;;;;;;;-0.16;93.27;97368.59;30001;983;1885;-60
2021/11/12 01:27:32;;;;;;;;;;;;;;;-0.16;93.04;97374.75;30001;983;1881;-62
2021/11/12 01:28:04;;;;;;;;;;;;;;;-0.13;93.29;97368.16;30001;983;1872;-60
2021/11/12 01:28:35;;;;;;;;;;;;;;;-0.12;93.07;97369.81;30001;983;1872;-62
2021/11/12 01:29:07;;;;;;;;;;;;;;;-0.11;93.14;97366.91;30001;982;1885;-61
2021/11/12 01:29:38;;;;;;;;;;;;;;;-0.11;93.07;97372.25;30001;982;1881;-61
2021/11/12 01:30:10;;;;;;;;;;;;;;;-0.09;93.10;97370.19;30001;982;1839;-60
2021/11/12 01:30:41;;;;;;;;;;;;;;;-0.10;92.75;97368.56;30001;982;1881;-60
2021/11/12 01:31:13;;;;;;;;;;;;;;;-0.10;93.03;97370.41;30001;982;1886;-61
2021/11/12 01:31:44;;;;;;;;;;;;;;;-0.09;92.79;97366.72;30001;982;1882;-61
2021/11/12 01:32:22;;;;;;;;;;;;;;;-0.10;92.90;97359.72;30001;983;1872;-62
2021/11/12 01:32:52;;;;;;;;;;;;;;;-0.09;92.68;97364.84;30001;983;1872;-60
2021/11/12 01:33:24;;;;;;;;;;;;;;;-0.11;92.96;97361.59;30001;983;1885;-61
2021/11/12 01:33:55;;;;;;;;;;;;;;;-0.10;92.69;97368.56;30001;983;1881;-61
2021/11/12 01:34:26;;;;;;;;;;;;;;;-0.09;92.77;97356.84;30001;983;1885;-61
2021/11/12 01:35:00;;;;;;;;;;;;;;;-0.10;92.59;97357.88;30001;983;1881;-61
2021/11/12 01:35:31;;;;;;;;;;;;;;;-0.10;92.68;97357.88;30001;983;1886;-61
2021/11/12 01:36:28;;;;;;;;;;;;;;;-0.10;92.69;97357.88;30001;983;1868;-61
2021/11/12 01:37:00;;;;;;;;;;;;;;;-0.10;92.71;97357.06;30001;982;1877;-61
2021/11/12 01:37:32;;;;;;;;;;;;;;;-0.12;92.72;97354.63;30001;982;1881;-61
2021/11/12 01:38:04;;;;;;;;;;;;;;;-0.13;92.77;97358.31;30001;982;1886;-60
2021/11/12 01:38:35;;;;;;;;;;;;;;;-0.14;92.71;97354.00;30001;982;1882;-60
2021/11/12 01:39:08;;;;;;;;;;;;;;;-0.12;92.51;97353.78;30001;982;1873;-59
2021/11/12 01:39:39;;;;;;;;;;;;;;;-0.11;92.44;97350.91;30001;983;1872;-61
2021/11/12 01:40:19;;;;;;;;;;;;;;;-0.13;92.67;97350.31;30001;983;1885;-60
2021/11/12 01:40:50;;;;;;;;;;;;;;;-0.10;92.44;97347.22;30001;983;1881;-60
2021/11/12 01:41:22;;;;;;;;;;;;;;;-0.10;92.54;97352.56;30001;983;1885;-61
2021/11/12 01:41:58;;;;;;;;;;;;;;;-0.09;92.36;97348.84;30001;983;1881;-60
2021/11/12 01:42:48;;;;;;;;;;;;;;;-0.11;92.55;97350.91;30001;983;1872;-60
2021/11/12 01:43:22;;;;;;;;;;;;;;;-0.13;92.33;97347.63;30001;983;1863;-61
2021/11/12 01:43:57;;;;;;;;;;;;;;;-0.11;92.41;97344.75;30001;982;1885;-60
2021/11/12 01:44:41;;;;;;;;;;;;;;;-0.11;92.45;97345.59;30001;982;1881;-61
2021/11/12 01:45:13;;;;;;;;;;;;;;;-0.09;92.55;97346.19;30001;982;1885;-61
2021/11/12 01:48:34;;;;;;;;;;;;;;;-0.06;92.61;97336.94;30001;983;1876;-61
2021/11/12 01:50:00;;;;;;;;;;;;;;;-0.10;92.66;97341.87;30001;983;1885;-61
2021/11/12 01:50:31;;;;;;;;;;;;;;;-0.10;92.45;97341.06;30001;983;1881;-61
2021/11/12 01:51:10;;;;;;;;;;;;;;;-0.10;92.80;97347.22;30001;983;1885;-61
2021/11/12 01:51:47;;;;;;;;;;;;;;;-0.10;92.59;97349.88;30001;982;1868;-61
2021/11/12 01:52:25;;;;;;;;;;;;;;;-0.10;92.57;97349.06;30001;982;1877;-61
2021/11/12 01:53:07;;;;;;;;;;;;;;;-0.09;92.73;97342.69;30001;982;1881;-61
2021/11/12 01:53:47;;;;;;;;;;;;;;;-0.09;92.63;97348.03;30001;982;1886;-61
2021/11/12 01:54:25;;;;;;;;;;;;;;;-0.10;92.31;97341.87;30001;983;1880;-60
2021/11/12 01:55:18;;;;;;;;;;;;;;;-0.14;92.42;97343.34;30001;983;1872;-61
2021/11/12 01:55:56;;;;;;;;;;;;;;;-0.15;92.21;97347.03;30001;983;1872;-62
2021/11/12 01:57:34;;;;;;;;;;;;;;;-0.13;92.46;97352.97;30001;983;1868;-62
2021/11/12 01:58:25;;;;;;;;;;;;;;;-0.15;92.26;97349.69;30001;983;1877;-61
2021/11/12 01:59:11;;;;;;;;;;;;;;;-0.16;92.38;97350.72;30001;982;1881;-62
2021/11/12 01:59:42;;;;;;;;;;;;;;;-0.16;92.34;97348.06;30001;982;1872;-62
2021/11/12 02:00:15;;;;;;;;;;;;;;;-0.16;92.33;97350.72;30001;982;1872;-61
2021/11/12 02:00:46;;;;;;;;;;;;;;;-0.16;92.54;97337.41;30001;982;1885;-60
2021/11/12 02:01:18;;;;;;;;;;;;;;;-0.16;92.37;97348.06;30001;982;1881;-60
2021/11/12 02:02:06;;;;;;;;;;;;;;;-0.15;92.65;97341.69;30001;983;1885;-61
2021/11/12 02:02:38;;;;;;;;;;;;;;;-0.14;92.42;97337.19;30001;983;1867;-60
2021/11/12 02:03:09;;;;;;;;;;;;;;;-0.14;92.54;97342.53;30001;983;1876;-61
2021/11/12 02:03:40;;;;;;;;;;;;;;;-0.15;92.37;97339.03;30001;983;1881;-61
2021/11/12 02:04:13;;;;;;;;;;;;;;;-0.15;92.48;97338.22;30001;983;1885;-59
2021/11/12 02:04:44;;;;;;;;;;;;;;;-0.15;92.38;97339.03;30001;983;1881;-62
2021/11/12 02:05:16;;;;;;;;;;;;;;;-0.15;92.37;97341.69;30001;983;1885;-59
2021/11/12 02:05:47;;;;;;;;;;;;;;;-0.15;92.41;97339.03;30001;983;1881;-61
2021/11/12 02:06:23;;;;;;;;;;;;;;;-0.13;92.41;97346.81;30001;983;1872;-62
2021/11/12 02:06:54;;;;;;;;;;;;;;;-0.15;92.58;97339.03;30001;982;1872;-61
2021/11/12 02:07:25;;;;;;;;;;;;;;;-0.16;92.67;97345.41;30001;982;1886;-62
2021/11/12 02:07:56;;;;;;;;;;;;;;;-0.16;92.82;97342.72;30001;982;1881;-60
2021/11/12 02:08:27;;;;;;;;;;;;;;;-0.17;92.77;97343.75;30001;982;1886;-62
2021/11/12 02:08:58;;;;;;;;;;;;;;;-0.17;92.58;97333.09;30001;983;1880;-62
2021/11/12 02:09:29;;;;;;;;;;;;;;;-0.17;92.81;97335.75;30001;983;1885;-61
2021/11/12 02:10:03;;;;;;;;;;;;;;;-0.16;92.62;97339.25;30001;983;1881;-61
2021/11/12 02:10:34;;;;;;;;;;;;;;;-0.16;92.50;97341.91;30001;983;1872;-62
2021/11/12 02:11:05;;;;;;;;;;;;;;;-0.16;92.70;97336.56;30001;983;1859;-61
2021/11/12 02:11:36;;;;;;;;;;;;;;;-0.17;92.49;97337.59;30001;983;1885;-60
2021/11/12 02:12:24;;;;;;;;;;;;;;;-0.20;92.34;97330.84;30001;983;1881;-61
2021/11/12 02:13:04;;;;;;;;;;;;;;;-0.24;92.23;97342.97;30001;983;1885;-61
2021/11/12 02:13:36;;;;;;;;;;;;;;;-0.28;92.31;97344.44;30001;983;1868;-61
2021/11/12 02:14:07;;;;;;;;;;;;;;;-0.31;92.35;97334.19;30001;982;1864;-60
2021/11/12 02:14:39;;;;;;;;;;;;;;;-0.31;92.48;97338.69;30001;982;1881;-62
2021/11/12 02:15:11;;;;;;;;;;;;;;;-0.32;92.49;97337.88;30001;982;1886;-61
2021/11/12 02:15:43;;;;;;;;;;;;;;;-0.31;92.47;97339.50;30001;982;1868;-60
2021/11/12 02:16:21;;;;;;;;;;;;;;;-0.32;92.67;97334.41;30001;982;1877;-61
2021/11/12 02:16:55;;;;;;;;;;;;;;;-0.33;92.50;97336.25;30001;983;1881;-60
2021/11/12 02:17:33;;;;;;;;;;;;;;;-0.32;92.42;97332.53;30001;983;1872;-61
2021/11/12 02:18:12;;;;;;;;;;;;;;;-0.32;92.73;97335.22;30001;983;1872;-61
2021/11/12 02:18:45;;;;;;;;;;;;;;;-0.30;92.76;97333.16;30001;983;1885;-61
2021/11/12 02:19:16;;;;;;;;;;;;;;;-0.30;92.64;97335.81;30001;983;1881;-61
2021/11/12 02:19:51;;;;;;;;;;;;;;;-0.29;92.62;97336.62;30001;983;1885;-62
2021/11/12 02:20:28;;;;;;;;;;;;;;;-0.28;92.64;97333.75;30001;983;1881;-62
2021/11/12 02:21:05;;;;;;;;;;;;;;;-0.28;92.50;97331.09;30001;982;1885;-61
2021/11/12 02:21:51;;;;;;;;;;;;;;;-0.28;92.49;97333.75;30001;982;1881;-62
2021/11/12 02:22:25;;;;;;;;;;;;;;;-0.28;92.76;97338.28;30001;982;1872;-60
2021/11/12 02:22:59;;;;;;;;;;;;;;;-0.28;92.64;97339.09;30001;982;1859;-60
2021/11/12 02:23:38;;;;;;;;;;;;;;;-0.28;92.53;97333.75;30001;982;1873;-61
2021/11/12 02:24:13;;;;;;;;;;;;;;;-0.28;92.68;97330.28;30001;983;1872;-61
2021/11/12 02:25:04;;;;;;;;;;;;;;;-0.27;92.82;97330.06;30001;983;1872;-61
2021/11/12 02:25:40;;;;;;;;;;;;;;;-0.28;92.80;97325.75;30001;983;1859;-61
2021/11/12 02:26:18;;;;;;;;;;;;;;;-0.26;92.69;97326.37;30001;983;1885;-61
2021/11/12 02:26:56;;;;;;;;;;;;;;;-0.29;92.52;97325.97;30001;983;1881;-61
2021/11/12 02:27:34;;;;;;;;;;;;;;;-0.30;92.62;97325.16;30001;983;1885;-56
2021/11/12 02:28:08;;;;;;;;;;;;;;;-0.30;92.65;97325.16;30001;983;1881;-61
2021/11/12 02:28:44;;;;;;;;;;;;;;;-0.30;92.81;97330.50;30001;982;1872;-62
2021/11/12 02:29:16;;;;;;;;;;;;;;;-0.32;92.82;97324.53;30001;982;1872;-61
2021/11/12 02:29:55;;;;;;;;;;;;;;;-0.33;92.72;97322.91;30001;982;1886;-62
2021/11/12 02:30:30;;;;;;;;;;;;;;;-0.35;92.90;97325.78;30001;982;1881;-61
2021/11/12 02:31:02;;;;;;;;;;;;;;;-0.37;93.03;97322.53;30001;982;1886;-60
2021/11/12 02:31:33;;;;;;;;;;;;;;;-0.37;92.83;97327.88;30001;982;1881;-60
2021/11/12 02:32:13;;;;;;;;;;;;;;;-0.37;92.78;97327.06;30001;983;1885;-61
2021/11/12 02:32:44;;;;;;;;;;;;;;;-0.37;92.90;97324.41;30001;983;1867;-61
2021/11/12 02:33:17;;;;;;;;;;;;;;;-0.37;92.91;97327.06;30001;983;1876;-60
2021/11/12 02:33:49;;;;;;;;;;;;;;;-0.37;92.87;97329.72;30001;983;1881;-61
2021/11/12 02:34:19;;;;;;;;;;;;;;;-0.40;93.07;97322.16;30001;983;1885;-57
2021/11/12 02:34:51;;;;;;;;;;;;;;;-0.40;92.83;97324.81;30001;983;1881;-61
2021/11/12 02:35:22;;;;;;;;;;;;;;;-0.41;92.99;97329.34;30001;983;1885;-59
2021/11/12 02:36:13;;;;;;;;;;;;;;;-0.41;92.80;97325.84;30001;982;1881;-60
2021/11/12 02:36:44;;;;;;;;;;;;;;;-0.44;92.67;97321.75;30001;982;1885;-61
2021/11/12 02:37:16;;;;;;;;;;;;;;;-0.44;93.14;97320.94;30001;982;1868;-60
2021/11/12 02:37:47;;;;;;;;;;;;;;;-0.46;92.93;97328.31;30001;982;1877;-62
2021/11/12 02:38:17;;;;;;;;;;;;;;;-0.46;92.92;97320.34;30001;982;1881;-62
2021/11/12 02:38:50;;;;;;;;;;;;;;;-0.46;93.16;97317.66;30001;982;1886;-62
2021/11/12 02:39:22;;;;;;;;;;;;;;;-0.44;93.14;97324.41;30001;983;1881;-60
2021/11/12 02:39:53;;;;;;;;;;;;;;;-0.42;93.02;97321.53;30001;983;1885;-57
2021/11/12 02:40:24;;;;;;;;;;;;;;;-0.40;93.16;97319.50;30001;983;1881;-63
2021/11/12 02:40:55;;;;;;;;;;;;;;;-0.38;93.28;97322.75;30001;983;1872;-62
2021/11/12 02:41:26;;;;;;;;;;;;;;;-0.37;93.07;97313.72;30001;983;1872;-60
2021/11/12 02:41:57;;;;;;;;;;;;;;;-0.36;93.26;97315.38;30001;983;1885;-61
2021/11/12 02:42:28;;;;;;;;;;;;;;;-0.36;92.78;97321.53;30001;983;1881;-60
2021/11/12 02:42:59;;;;;;;;;;;;;;;-0.37;92.93;97319.88;30001;983;1886;-61
2021/11/12 02:43:32;;;;;;;;;;;;;;;-0.38;92.79;97318.25;30001;982;1881;-61
2021/11/12 02:44:04;;;;;;;;;;;;;;;-0.40;92.75;97314.16;30001;982;1886;-61
2021/11/12 02:44:36;;;;;;;;;;;;;;;-0.42;92.40;97316.22;30001;982;1881;-60
2021/11/12 02:45:07;;;;;;;;;;;;;;;-0.41;92.72;97317.84;30001;982;1886;-61
2021/11/12 02:45:37;;;;;;;;;;;;;;;-0.40;92.75;97308.81;30001;982;1868;-61
2021/11/12 02:46:10;;;;;;;;;;;;;;;-0.38;92.91;97315.59;30001;982;1864;-62
2021/11/12 02:46:40;;;;;;;;;;;;;;;-0.36;92.61;97315.38;30001;982;1882;-61
2021/11/12 02:47:13;;;;;;;;;;;;;;;-0.34;92.73;97310.59;30001;983;1885;-61
2021/11/12 02:47:43;;;;;;;;;;;;;;;-0.34;92.41;97307.94;30001;983;1881;-61
2021/11/12 02:48:14;;;;;;;;;;;;;;;-0.35;92.52;97306.34;30001;983;1885;-62
2021/11/12 02:48:45;;;;;;;;;;;;;;;-0.35;92.57;97312.47;30001;983;1868;-60
2021/11/12 02:49:16;;;;;;;;;;;;;;;-0.34;92.62;97314.09;30001;983;1864;-61
2021/11/12 02:49:47;;;;;;;;;;;;;;;-0.32;92.44;97311.22;30001;983;1881;-57
2021/11/12 02:50:19;;;;;;;;;;;;;;;-0.30;92.59;97303.00;30001;983;1886;-61
2021/11/12 02:50:50;;;;;;;;;;;;;;;-0.30;92.37;97311.00;30001;983;1881;-61
2021/11/12 02:51:26;;;;;;;;;;;;;;;-0.32;92.22;97305.88;30001;982;1886;-61
2021/11/12 02:51:58;;;;;;;;;;;;;;;-0.35;92.05;97304.47;30001;982;1882;-61
2021/11/12 02:52:28;;;;;;;;;;;;;;;-0.36;92.29;97310.03;30001;982;1886;-62
2021/11/12 02:53:03;;;;;;;;;;;;;;;-0.35;92.09;97314.34;30001;982;1882;-62
2021/11/12 02:53:34;;;;;;;;;;;;;;;-0.36;92.37;97310.03;30001;983;1885;-61
2021/11/12 02:54:12;;;;;;;;;;;;;;;-0.36;92.26;97304.69;30001;983;1881;-61
2021/11/12 02:54:43;;;;;;;;;;;;;;;-0.36;92.39;97310.03;30001;983;1872;-61
2021/11/12 02:55:15;;;;;;;;;;;;;;;-0.36;92.37;97299.38;30001;983;1872;-61
2021/11/12 02:55:46;;;;;;;;;;;;;;;-0.35;92.39;97311.66;30001;983;1885;-61
2021/11/12 02:56:30;;;;;;;;;;;;;;;-0.36;92.27;97310.84;30001;983;1881;-62
2021/11/12 02:57:03;;;;;;;;;;;;;;;-0.34;92.48;97308.75;30001;983;1886;-62
2021/11/12 02:57:35;;;;;;;;;;;;;;;-0.36;92.34;97308.19;30001;983;1881;-61
2021/11/12 02:58:07;;;;;;;;;;;;;;;-0.38;92.29;97306.75;30001;983;1886;-62
2021/11/12 02:58:38;;;;;;;;;;;;;;;-0.38;92.28;97306.75;30001;982;1881;-61
2021/11/12 02:59:11;;;;;;;;;;;;;;;-0.40;92.12;97306.16;30001;982;1873;-61
2021/11/12 02:59:42;;;;;;;;;;;;;;;-0.40;92.49;97308.81;30001;982;1873;-61
2021/11/12 03:00:15;;;;;;;;;;;;;;;-0.41;92.47;97312.53;30001;982;1886;-62
2021/11/12 03:00:47;;;;;;;;;;;;;;;-0.44;92.25;97308.44;30001;982;1882;-62
2021/11/12 03:01:18;;;;;;;;;;;;;;;-0.44;92.19;97312.94;30001;983;1872;-62
2021/11/12 03:01:49;;;;;;;;;;;;;;;-0.45;92.31;97300.66;30001;983;1872;-61
2021/11/12 03:02:21;;;;;;;;;;;;;;;-0.43;92.47;97298.59;30001;983;1885;-62
2021/11/12 03:02:52;;;;;;;;;;;;;;;-0.42;92.70;97303.69;30001;983;1881;-61
2021/11/12 03:03:23;;;;;;;;;;;;;;;-0.41;92.72;97302.66;30001;983;1885;-60
2021/11/12 03:03:54;;;;;;;;;;;;;;;-0.39;92.42;97302.47;30001;983;1881;-61
2021/11/12 03:04:25;;;;;;;;;;;;;;;-0.39;92.62;97305.13;30001;983;1872;-61
2021/11/12 03:04:56;;;;;;;;;;;;;;;-0.40;92.30;97298.16;30001;983;1872;-61
2021/11/12 03:05:29;;;;;;;;;;;;;;;-0.40;92.48;97303.50;30001;983;1885;-61
2021/11/12 03:06:00;;;;;;;;;;;;;;;-0.42;92.21;97305.56;30001;983;1881;-61
2021/11/12 03:06:30;;;;;;;;;;;;;;;-0.43;92.21;97298.59;30001;982;1886;-60
2021/11/12 03:07:02;;;;;;;;;;;;;;;-0.42;92.51;97294.87;30001;982;1868;-62
2021/11/12 03:07:33;;;;;;;;;;;;;;;-0.43;92.38;97298.59;30001;982;1877;-62
2021/11/12 03:08:04;;;;;;;;;;;;;;;-0.44;92.40;97303.09;30001;982;1882;-60
2021/11/12 03:08:35;;;;;;;;;;;;;;;-0.41;92.48;97296.53;30001;983;1885;-61
2021/11/12 03:09:08;;;;;;;;;;;;;;;-0.41;92.34;97299.19;30001;983;1881;-56
2021/11/12 03:09:39;;;;;;;;;;;;;;;-0.43;92.55;97296.72;30001;983;1885;-61
2021/11/12 03:10:10;;;;;;;;;;;;;;;-0.40;92.18;97298.16;30001;983;1881;-61
2021/11/12 03:10:41;;;;;;;;;;;;;;;-0.41;92.51;97294.69;30001;983;1885;-61
2021/11/12 03:11:12;;;;;;;;;;;;;;;-0.40;92.15;97298.97;30001;983;1881;-61
2021/11/12 03:11:43;;;;;;;;;;;;;;;-0.40;92.49;97292.81;30001;983;1885;-61
2021/11/12 03:12:14;;;;;;;;;;;;;;;-0.39;92.51;97297.13;30001;983;1868;-61
2021/11/12 03:12:45;;;;;;;;;;;;;;;-0.40;92.25;97298.97;30001;983;1877;-61
2021/11/12 03:13:16;;;;;;;;;;;;;;;-0.41;92.30;97294.69;30001;983;1881;-60
2021/11/12 03:13:47;;;;;;;;;;;;;;;-0.41;92.55;97301.84;30001;982;1886;-62
2021/11/12 03:14:18;;;;;;;;;;;;;;;-0.40;92.25;97292.81;30001;982;1881;-62
2021/11/12 03:14:50;;;;;;;;;;;;;;;-0.40;92.64;97298.16;30001;982;1886;-61
2021/11/12 03:15:21;;;;;;;;;;;;;;;-0.40;92.38;97298.16;30001;982;1882;-61
2021/11/12 03:15:52;;;;;;;;;;;;;;;-0.40;92.55;97295.50;30001;982;1886;-61
2021/11/12 03:16:23;;;;;;;;;;;;;;;-0.40;92.19;97295.50;30001;983;1881;-61
2021/11/12 03:16:55;;;;;;;;;;;;;;;-0.40;92.46;97303.50;30001;983;1885;-60
2021/11/12 03:17:25;;;;;;;;;;;;;;;-0.40;92.36;97303.50;30001;983;1868;-61
2021/11/12 03:17:57;;;;;;;;;;;;;;;-0.41;92.43;97299.19;30001;983;1877;-62
2021/11/12 03:18:30;;;;;;;;;;;;;;;-0.41;92.31;97301.84;30001;983;1881;-61
2021/11/12 03:19:03;;;;;;;;;;;;;;;-0.40;92.25;97303.50;30001;983;1872;-62
2021/11/12 03:19:34;;;;;;;;;;;;;;;-0.41;92.30;97302.66;30001;983;1872;-61
2021/11/12 03:20:06;;;;;;;;;;;;;;;-0.40;92.29;97303.50;30001;983;1886;-61
2021/11/12 03:20:38;;;;;;;;;;;;;;;-0.39;92.15;97299.78;30001;983;1881;-61
2021/11/12 03:21:12;;;;;;;;;;;;;;;-0.40;92.41;97300.81;30001;982;1886;-61
2021/11/12 03:21:44;;;;;;;;;;;;;;;-0.40;92.11;97298.97;30001;982;1881;-61
2021/11/12 03:22:20;;;;;;;;;;;;;;;-0.42;92.30;97294.87;30001;982;1886;-61
2021/11/12 03:23:08;;;;;;;;;;;;;;;-0.43;91.95;97303.91;30001;982;1868;-61
2021/11/12 03:23:46;;;;;;;;;;;;;;;-0.46;91.95;97293.66;30001;983;1863;-60
2021/11/12 03:24:25;;;;;;;;;;;;;;;-0.47;91.87;97303.53;30001;983;1881;-61
2021/11/12 03:25:02;;;;;;;;;;;;;;;-0.48;92.07;97301.88;30001;983;1872;-62
2021/11/12 03:25:45;;;;;;;;;;;;;;;-0.48;92.20;97303.72;30001;983;1859;-60
2021/11/12 03:26:29;;;;;;;;;;;;;;;-0.50;92.29;97297.78;30001;983;1885;-63
2021/11/12 03:27:15;;;;;;;;;;;;;;;-0.49;91.98;97299.44;30001;983;1881;-60
2021/11/12 03:28:12;;;;;;;;;;;;;;;-0.50;92.31;97298.62;30001;983;1886;-61
2021/11/12 03:59:50;;;;;;;;;;;;;;;-0.73;92.73;97288.47;30001;983;1881;-60
2021/11/12 03:59:58;;;;;;;;;;;;;;;-0.69;92.68;97283.50;30001;982;1882;-61